Tamarack, Idaho
Current Conditions -  °F | °C
As of 5:51 AM on Wednesday 22 Oct 2014 (Local Time) from KMYL Reporting Station
Haze Haze  
Wind Chill: 34°   Ceiling: 300
Heat Index: 34°   Visibility: 0.75mi
Dew Point: 34°   Wind: 0mph
Humidity: 100%   Direction: NA
Pressure: 30.09"   Gusts: NA
Location:  44.7667°N, 116.117°W
Report Text: KMYL 221151Z AUTO 00000KT 3/4SM BR VV003 01/01 A3009 RMK AO2 SLP198 70016 T00110011 10022 20011 52001
Loading
Personal Weather Stations






























Interactive Weather Map
Tropical Storm Tracking
New forecast layout! Learn more

10-Day Weather Forecast

Advertisements
Track Severe Weather on mobile